createdAt,value
2023-03-19T00:00:30.864Z,13.07
2023-03-19T00:03:18.412Z,13.05
2023-03-19T00:05:54.925Z,13.25
2023-03-19T00:08:22.942Z,14.05
2023-03-19T00:10:51.075Z,13.10
2023-03-19T00:13:19.765Z,13.75
2023-03-19T00:15:50.459Z,14.32
2023-03-19T00:18:18.055Z,12.20
2023-03-19T00:20:45.909Z,13.23
2023-03-19T00:23:13.473Z,13.38
2023-03-19T00:25:40.866Z,14.07
2023-03-19T00:28:08.420Z,13.23
2023-03-19T00:30:36.495Z,13.40
2023-03-19T00:33:04.241Z,13.85
2023-03-19T00:35:31.599Z,13.55
2023-03-19T00:37:59.224Z,13.85
2023-03-19T00:40:27.418Z,13.15
2023-03-19T00:42:55.019Z,13.45
2023-03-19T00:45:22.258Z,12.95
2023-03-19T00:47:49.821Z,14.27
2023-03-19T00:50:17.310Z,12.95
2023-03-19T00:52:44.802Z,12.85
2023-03-19T00:55:11.989Z,14.07
2023-03-19T00:57:39.660Z,13.35
2023-03-19T01:00:08.761Z,14.40
2023-03-19T01:02:37.080Z,13.55
2023-03-19T01:05:04.580Z,13.18
2023-03-19T01:07:33.081Z,13.00
2023-03-19T01:10:00.344Z,13.27
2023-03-19T01:12:28.467Z,13.75
2023-03-19T01:14:55.763Z,13.60
2023-03-19T01:17:23.513Z,14.57
2023-03-19T01:19:50.999Z,13.48
2023-03-19T01:22:18.744Z,13.15
2023-03-19T01:24:53.041Z,14.30
2023-03-19T01:27:21.345Z,14.23
2023-03-19T01:29:50.934Z,14.27
2023-03-19T01:32:28.379Z,14.32
2023-03-19T01:35:14.004Z,13.98
2023-03-19T01:37:41.767Z,14.80
2023-03-19T01:40:13.357Z,14.15
2023-03-19T01:42:57.751Z,14.95
2023-03-19T01:45:44.966Z,14.45
2023-03-19T01:48:44.872Z,14.82
2023-03-19T01:51:17.825Z,13.68
2023-03-19T01:54:02.748Z,14.52
2023-03-19T01:56:39.804Z,15.15
2023-03-19T02:02:29.465Z,13.18
2023-03-19T02:05:09.553Z,14.05
2023-03-19T02:07:39.899Z,13.60
2023-03-19T02:10:11.936Z,14.15
2023-03-19T02:15:07.378Z,14.55
2023-03-19T02:17:34.989Z,13.95
2023-03-19T02:20:08.890Z,14.75
2023-03-19T02:22:40.207Z,13.73
2023-03-19T02:25:17.314Z,14.50
2023-03-19T02:27:46.922Z,15.07
2023-03-19T02:30:21.457Z,14.73
2023-03-19T02:32:49.158Z,14.77
2023-03-19T02:35:16.924Z,14.13
2023-03-19T02:37:44.271Z,13.80
2023-03-19T02:40:19.603Z,15.32
2023-03-19T02:42:46.885Z,14.10
2023-03-19T02:45:15.038Z,14.40
2023-03-19T02:47:42.279Z,13.88
2023-03-19T02:50:10.577Z,14.68
2023-03-19T02:52:37.817Z,15.02
2023-03-19T02:55:06.561Z,14.48
2023-03-19T02:57:35.482Z,14.52
2023-03-19T03:00:05.156Z,14.98
2023-03-19T03:02:32.683Z,14.32
2023-03-19T03:05:00.502Z,15.27
2023-03-19T03:07:27.710Z,14.75
2023-03-19T03:09:55.256Z,14.27
2023-03-19T03:12:22.754Z,14.77
2023-03-19T03:14:50.298Z,14.43
2023-03-19T03:17:19.295Z,14.93
2023-03-19T03:19:47.828Z,14.82
2023-03-19T03:22:15.161Z,15.65
2023-03-19T03:24:42.694Z,15.10
2023-03-19T03:27:10.088Z,14.18
2023-03-19T03:29:38.127Z,14.30
2023-03-19T03:32:07.261Z,15.10
2023-03-19T03:34:34.958Z,14.52
2023-03-19T03:37:02.154Z,15.10
2023-03-19T03:39:29.802Z,15.75
2023-03-19T03:41:57.136Z,15.63
2023-03-19T03:44:24.957Z,15.52
2023-03-19T03:46:52.545Z,16.75
2023-03-19T03:49:20.180Z,15.60
2023-03-19T03:51:47.632Z,16.60
2023-03-19T03:54:15.513Z,15.43
2023-03-19T03:56:42.714Z,16.17
2023-03-19T03:59:10.321Z,16.40
2023-03-19T04:01:37.574Z,16.45
2023-03-19T04:04:05.450Z,16.25
2023-03-19T04:06:32.864Z,15.95
2023-03-19T04:09:19.657Z,15.95
2023-03-19T04:11:49.781Z,15.70
2023-03-19T04:14:18.904Z,15.80
2023-03-19T04:16:46.757Z,16.17
2023-03-19T04:19:14.530Z,15.90
2023-03-19T04:21:41.856Z,16.20
2023-03-19T04:24:10.631Z,16.63
2023-03-19T04:26:38.465Z,15.85
2023-03-19T04:29:08.574Z,15.50
2023-03-19T04:31:36.177Z,16.23
2023-03-19T04:34:03.909Z,16.60
2023-03-19T04:36:31.322Z,15.23
2023-03-19T04:38:58.943Z,15.88
2023-03-19T04:41:27.187Z,15.63
2023-03-19T04:44:06.022Z,17.02
2023-03-19T04:46:34.243Z,17.02
2023-03-19T04:49:02.961Z,16.30
2023-03-19T04:51:30.900Z,15.18
2023-03-19T04:53:58.949Z,16.55
2023-03-19T04:56:27.818Z,17.55
2023-03-19T04:58:56.053Z,16.85
2023-03-19T05:01:23.878Z,17.38
2023-03-19T05:04:04.173Z,17.95
2023-03-19T05:06:34.190Z,18.65
2023-03-19T05:09:02.548Z,16.48
2023-03-19T05:11:29.850Z,16.52
2023-03-19T05:14:05.615Z,17.40
2023-03-19T05:17:08.708Z,17.90
2023-03-19T05:19:48.758Z,15.13
2023-03-19T05:22:17.282Z,16.45
2023-03-19T05:24:45.589Z,17.30
2023-03-19T05:27:13.413Z,15.93
2023-03-19T05:30:05.786Z,16.80
2023-03-19T05:33:00.037Z,14.93
2023-03-19T05:35:34.803Z,14.77
2023-03-19T05:38:03.980Z,16.48
2023-03-19T05:40:32.861Z,16.40
2023-03-19T05:43:05.833Z,15.65
2023-03-19T05:45:33.659Z,15.10
2023-03-19T05:48:09.157Z,16.55
2023-03-19T05:50:42.623Z,16.90
2023-03-19T05:53:20.465Z,15.68
2023-03-19T05:56:08.489Z,16.17
2023-03-19T05:58:45.801Z,16.02
2023-03-19T06:01:16.313Z,15.50
2023-03-19T06:03:44.525Z,16.35
2023-03-19T06:06:12.411Z,15.40
2023-03-19T06:08:43.698Z,15.18
2023-03-19T06:11:21.932Z,14.52
2023-03-19T06:13:58.688Z,14.82
2023-03-19T06:16:27.233Z,15.65
2023-03-19T06:18:55.281Z,15.07
2023-03-19T06:21:29.694Z,15.35
2023-03-19T06:24:00.174Z,14.98
2023-03-19T06:26:33.873Z,15.52
2023-03-19T06:29:05.009Z,15.35
2023-03-19T06:31:33.060Z,16.83
2023-03-19T06:34:03.273Z,14.60
2023-03-19T06:36:39.350Z,16.75
2023-03-19T06:39:09.391Z,15.38
2023-03-19T06:41:37.416Z,16.02
2023-03-19T06:44:17.507Z,15.70
2023-03-19T06:46:45.200Z,15.60
2023-03-19T06:49:12.458Z,14.15
2023-03-19T06:51:40.080Z,13.82
2023-03-19T06:54:07.320Z,14.65
2023-03-19T06:56:34.845Z,14.60
2023-03-19T06:59:02.360Z,14.75
2023-03-19T07:01:29.936Z,15.90
2023-03-19T07:03:57.511Z,16.17
2023-03-19T07:06:25.096Z,14.50
2023-03-19T07:08:52.336Z,14.70
2023-03-19T07:11:19.849Z,14.40
2023-03-19T07:13:47.183Z,13.32
2023-03-19T07:16:14.923Z,14.20
2023-03-19T07:18:42.171Z,14.05
2023-03-19T07:21:09.691Z,14.32
2023-03-19T07:23:36.916Z,14.80
2023-03-19T07:26:04.621Z,14.15
2023-03-19T07:28:31.875Z,14.45
2023-03-19T07:30:59.429Z,13.95
2023-03-19T07:33:26.679Z,14.95
2023-03-19T07:35:54.367Z,14.63
2023-03-19T07:38:21.772Z,13.95
2023-03-19T07:41:01.432Z,12.82
2023-03-19T07:43:29.399Z,12.60
2023-03-19T07:45:57.217Z,12.65
2023-03-19T07:48:24.597Z,13.52
2023-03-19T07:50:52.389Z,12.75
2023-03-19T07:53:20.091Z,12.90
2023-03-19T07:55:48.568Z,12.30
2023-03-19T07:58:16.918Z,11.32
2023-03-19T08:00:45.265Z,10.80
2023-03-19T08:03:12.699Z,11.80
2023-03-19T08:05:40.261Z,11.60
2023-03-19T08:08:08.026Z,9.93
2023-03-19T08:10:37.900Z,10.75
2023-03-19T08:13:05.525Z,10.70
2023-03-19T08:15:33.239Z,9.73
2023-03-19T08:18:02.111Z,9.82
2023-03-19T08:20:30.092Z,9.68
2023-03-19T08:22:58.108Z,9.45
2023-03-19T08:25:26.202Z,9.10
2023-03-19T08:27:53.448Z,8.38
2023-03-19T08:30:21.142Z,8.82
2023-03-19T08:32:49.445Z,9.73
2023-03-19T08:35:17.517Z,10.35
2023-03-19T08:37:44.896Z,10.18
2023-03-19T08:40:12.927Z,9.55
2023-03-19T08:42:44.373Z,9.77
2023-03-19T08:45:15.049Z,9.57
2023-03-19T08:47:43.649Z,9.82
2023-03-19T08:50:12.241Z,9.52
2023-03-19T08:52:39.477Z,9.43
2023-03-19T08:55:08.511Z,10.10
2023-03-19T08:57:36.744Z,10.70
2023-03-19T09:00:05.861Z,9.40
2023-03-19T09:02:33.172Z,10.63
2023-03-19T09:05:01.007Z,11.25
2023-03-19T09:07:28.270Z,10.35
2023-03-19T09:09:55.830Z,10.93
2023-03-19T09:12:23.225Z,11.48
2023-03-19T09:14:51.869Z,11.57
2023-03-19T09:17:19.115Z,10.43
2023-03-19T09:19:46.633Z,10.20
2023-03-19T09:22:13.856Z,9.75
2023-03-19T09:24:41.596Z,10.02
2023-03-19T09:27:08.904Z,10.93
2023-03-19T09:29:36.637Z,9.95
2023-03-19T09:32:04.466Z,10.10
2023-03-19T09:34:32.011Z,10.65
2023-03-19T09:36:59.304Z,11.38
2023-03-19T09:39:26.852Z,11.85
2023-03-19T09:42:28.032Z,11.38
2023-03-19T09:44:55.909Z,11.65
2023-03-19T09:47:29.644Z,11.82
2023-03-19T09:50:04.212Z,15.13
2023-03-19T09:52:54.844Z,14.52
2023-03-19T09:55:34.546Z,14.15
2023-03-19T09:58:02.740Z,16.65
2023-03-19T10:00:34.589Z,16.67
2023-03-19T10:03:14.685Z,17.08
2023-03-19T10:06:06.917Z,17.38
2023-03-19T10:08:38.684Z,17.50
2023-03-19T10:11:15.474Z,16.85
2023-03-19T10:14:29.703Z,16.70
2023-03-19T10:17:00.190Z,15.77
2023-03-19T10:19:56.842Z,14.70
2023-03-19T10:22:33.554Z,14.75
2023-03-19T10:25:02.875Z,15.52
2023-03-19T10:27:30.392Z,14.57
2023-03-19T10:29:57.688Z,13.25
2023-03-19T10:32:41.565Z,12.95
2023-03-19T10:35:19.775Z,13.23
2023-03-19T10:37:50.134Z,13.27
2023-03-19T10:40:26.588Z,11.98
2023-03-19T10:43:06.244Z,13.00
2023-03-19T10:45:38.486Z,12.20
2023-03-19T10:48:12.222Z,11.07
2023-03-19T10:51:06.222Z,10.70
2023-03-19T10:53:37.618Z,10.25
2023-03-19T10:56:08.027Z,10.88
2023-03-19T10:58:37.064Z,10.70
2023-03-19T11:01:11.199Z,10.48
2023-03-19T11:04:00.589Z,10.82
2023-03-19T11:06:36.170Z,11.02
2023-03-19T11:09:19.837Z,11.05
2023-03-19T11:11:53.710Z,10.93
2023-03-19T11:14:26.321Z,11.57
2023-03-19T11:17:06.488Z,11.52
2023-03-19T11:19:41.442Z,11.27
2023-03-19T11:22:23.049Z,10.90
2023-03-19T11:24:56.455Z,10.55
2023-03-19T11:27:29.771Z,11.00
2023-03-19T11:29:57.731Z,10.55
2023-03-19T11:32:37.352Z,11.07
2023-03-19T11:35:16.124Z,12.35
2023-03-19T11:37:56.759Z,12.30
2023-03-19T11:40:32.018Z,11.93
2023-03-19T11:43:29.248Z,11.70
2023-03-19T11:46:02.916Z,10.73
2023-03-19T11:48:45.416Z,10.32
2023-03-19T11:51:20.699Z,10.30
2023-03-19T11:54:38.835Z,10.82
2023-03-19T11:57:24.535Z,10.35
2023-03-19T12:00:19.151Z,9.68
2023-03-19T12:03:19.123Z,9.52
2023-03-19T12:06:01.299Z,9.07
2023-03-19T12:08:34.035Z,9.88
2023-03-19T12:11:32.495Z,10.00
2023-03-19T12:14:16.373Z,9.40
2023-03-19T12:17:04.387Z,9.13
2023-03-19T12:20:14.863Z,8.85
2023-03-19T12:23:06.718Z,9.48
2023-03-19T12:25:37.262Z,10.23
2023-03-19T12:28:29.253Z,9.57
2023-03-19T12:31:42.460Z,8.77
2023-03-19T12:34:24.906Z,8.75
2023-03-19T12:37:07.957Z,10.45
2023-03-19T12:39:38.840Z,9.45
2023-03-19T12:42:13.496Z,8.45
2023-03-19T12:44:46.679Z,9.18
2023-03-19T12:47:19.533Z,8.23
2023-03-19T12:50:01.482Z,8.93
2023-03-19T12:52:49.608Z,9.43
2023-03-19T12:55:36.459Z,8.88
2023-03-19T12:58:14.417Z,8.65
2023-03-19T13:01:02.669Z,8.38
2023-03-19T13:03:39.095Z,8.57
2023-03-19T13:06:32.271Z,8.85
2023-03-19T13:08:59.804Z,8.77
2023-03-19T13:11:45.734Z,8.70
2023-03-19T13:14:22.552Z,8.50
2023-03-19T13:17:06.777Z,7.93
2023-03-19T13:19:40.797Z,8.68
2023-03-19T13:22:13.104Z,8.07
2023-03-19T13:24:44.696Z,8.27
2023-03-19T13:27:22.840Z,6.72
2023-03-19T13:30:19.415Z,7.75
2023-03-19T13:33:05.095Z,6.93
2023-03-19T13:35:38.082Z,7.93
2023-03-19T13:38:15.445Z,8.27
2023-03-19T13:40:54.476Z,9.40
2023-03-19T13:43:30.896Z,9.52
2023-03-19T13:46:04.885Z,8.43
2023-03-19T13:48:32.136Z,8.63
2023-03-19T13:51:06.438Z,7.88
2023-03-19T13:53:54.040Z,9.27
2023-03-19T13:56:29.907Z,8.38
2023-03-19T13:59:15.790Z,8.73
2023-03-19T14:01:45.066Z,8.38
2023-03-19T14:04:32.428Z,8.15
2023-03-19T14:07:17.414Z,8.07
2023-03-19T14:10:07.743Z,8.55
2023-03-19T14:12:37.946Z,8.65
2023-03-19T14:15:11.255Z,8.50
2023-03-19T14:17:53.981Z,8.10
2023-03-19T14:20:53.253Z,8.38
2023-03-19T14:23:38.391Z,7.57
2023-03-19T14:26:15.906Z,8.68
2023-03-19T14:29:02.596Z,8.25
2023-03-19T14:31:39.165Z,10.02
2023-03-19T14:34:22.098Z,9.57
2023-03-19T14:36:52.498Z,9.65
2023-03-19T14:39:29.296Z,10.02
2023-03-19T14:42:08.688Z,9.95
2023-03-19T14:44:54.934Z,9.70
2023-03-19T14:47:49.862Z,9.48
2023-03-19T14:50:29.894Z,9.77
2023-03-19T14:53:11.242Z,9.65
2023-03-19T14:55:38.871Z,11.02
2023-03-19T14:58:06.264Z,12.60
2023-03-19T15:00:55.602Z,17.75
2023-03-19T15:03:34.939Z,21.17
2023-03-19T15:06:05.587Z,20.92
2023-03-19T15:08:36.472Z,23.60
2023-03-19T15:11:33.916Z,20.52
2023-03-19T15:14:13.969Z,21.13
2023-03-19T15:16:55.144Z,22.45
2023-03-19T15:19:29.822Z,21.13
2023-03-19T15:22:14.912Z,20.75
2023-03-19T15:24:43.076Z,21.55
2023-03-19T15:27:25.921Z,22.42
2023-03-19T15:30:02.072Z,22.25
2023-03-19T15:33:08.971Z,22.08
2023-03-19T15:35:32.076Z,21.52
2023-03-19T15:38:02.888Z,23.73
2023-03-19T15:40:32.770Z,23.98
2023-03-19T15:43:02.799Z,22.98
2023-03-19T15:45:33.940Z,24.42
2023-03-19T15:48:09.526Z,24.15
2023-03-19T15:50:43.783Z,25.00
2023-03-19T15:53:17.224Z,25.80
2023-03-19T15:55:44.777Z,25.65
2023-03-19T15:58:19.122Z,24.70
2023-03-19T16:00:47.068Z,25.27
2023-03-19T16:03:20.344Z,25.85
2023-03-19T16:05:52.680Z,25.25
2023-03-19T16:08:25.459Z,25.13
2023-03-19T16:10:53.419Z,25.65
2023-03-19T16:13:27.304Z,24.38
2023-03-19T16:16:02.925Z,25.08
2023-03-19T16:18:42.064Z,25.67
2023-03-19T16:21:15.188Z,24.63
2023-03-19T16:23:46.612Z,24.75
2023-03-19T16:26:26.421Z,24.67
2023-03-19T16:29:03.214Z,26.17
2023-03-19T16:31:36.485Z,26.77
2023-03-19T16:34:04.096Z,26.23
2023-03-19T16:36:33.636Z,25.75
2023-03-19T16:39:30.672Z,25.13
2023-03-19T16:42:28.729Z,25.80
2023-03-19T16:44:56.709Z,25.05
2023-03-19T16:47:23.989Z,24.50
2023-03-19T16:49:51.705Z,24.63
2023-03-19T16:52:22.527Z,24.90
2023-03-19T16:54:51.892Z,25.40
2023-03-19T16:57:19.816Z,25.15
2023-03-19T16:59:48.234Z,24.90
2023-03-19T17:02:17.365Z,25.30
2023-03-19T17:04:46.008Z,24.48
2023-03-19T17:07:13.716Z,25.15
2023-03-19T17:09:41.236Z,25.65
2023-03-19T17:12:15.560Z,25.88
2023-03-19T17:14:43.526Z,25.58
2023-03-19T17:17:19.562Z,24.92
2023-03-19T17:19:47.371Z,24.55
2023-03-19T17:22:14.644Z,25.98
2023-03-19T17:24:42.495Z,25.45
2023-03-19T17:27:09.864Z,27.05
2023-03-19T17:29:37.377Z,26.60
2023-03-19T17:32:07.154Z,27.15
2023-03-19T17:34:36.939Z,27.23
2023-03-19T17:37:10.845Z,27.88
2023-03-19T17:39:38.512Z,28.00
2023-03-19T17:42:24.303Z,27.88
2023-03-19T17:44:52.254Z,27.17
2023-03-19T17:47:20.200Z,27.35
2023-03-19T17:49:48.063Z,27.77
2023-03-19T17:52:19.100Z,27.13
2023-03-19T17:54:46.712Z,26.52
2023-03-19T17:57:15.314Z,27.30
2023-03-19T17:59:42.934Z,27.00
2023-03-19T18:02:22.091Z,27.88
2023-03-19T18:04:52.390Z,26.92
2023-03-19T18:07:20.018Z,29.48
2023-03-19T18:09:47.544Z,28.42
2023-03-19T18:12:15.300Z,28.83
2023-03-19T18:14:42.802Z,28.80
2023-03-19T18:17:17.044Z,28.40
2023-03-19T18:19:47.477Z,29.38
2023-03-19T18:22:19.230Z,29.55
2023-03-19T18:24:46.930Z,30.23
2023-03-19T18:27:14.761Z,30.55
2023-03-19T18:29:42.359Z,29.88
2023-03-19T18:32:16.837Z,30.08
2023-03-19T18:34:44.500Z,32.65
2023-03-19T18:37:17.292Z,29.33
2023-03-19T18:39:45.076Z,30.13
2023-03-19T18:42:13.644Z,30.73
2023-03-19T18:44:41.295Z,30.42
2023-03-19T18:47:14.975Z,30.50
2023-03-19T18:49:43.580Z,31.98
2023-03-19T18:52:16.426Z,32.95
2023-03-19T18:54:46.096Z,35.55
2023-03-19T18:57:14.419Z,32.63
2023-03-19T18:59:42.419Z,33.70
2023-03-19T19:02:28.669Z,34.00
2023-03-19T19:04:56.322Z,34.38
2023-03-19T19:07:23.589Z,33.45
2023-03-19T19:09:51.221Z,33.30
2023-03-19T19:12:19.583Z,32.42
2023-03-19T19:14:47.184Z,32.47
2023-03-19T19:17:21.262Z,34.13
2023-03-19T19:19:48.804Z,32.40
2023-03-19T19:22:18.478Z,34.10
2023-03-19T19:24:46.536Z,34.25
2023-03-19T19:27:20.730Z,34.40
2023-03-19T19:29:49.373Z,35.00
2023-03-19T19:32:24.871Z,31.95
2023-03-19T19:34:53.233Z,33.20
2023-03-19T19:37:23.288Z,33.90
2023-03-19T19:39:51.768Z,32.38
2023-03-19T19:42:21.256Z,34.13
2023-03-19T19:44:55.418Z,33.45
2023-03-19T19:47:22.796Z,32.28
2023-03-19T19:49:50.583Z,32.72
2023-03-19T19:52:19.642Z,30.98
2023-03-19T19:54:47.739Z,31.20
2023-03-19T19:57:27.077Z,32.85
2023-03-19T19:59:55.684Z,34.55
2023-03-19T20:02:28.982Z,33.67
2023-03-19T20:04:57.972Z,32.78
2023-03-19T20:07:25.780Z,35.15
2023-03-19T20:09:53.386Z,34.25
2023-03-19T20:12:22.318Z,33.53
2023-03-19T20:14:51.211Z,33.90
2023-03-19T20:17:21.130Z,38.15
2023-03-19T20:19:48.900Z,35.63
2023-03-19T20:22:16.619Z,34.13
2023-03-19T20:24:45.117Z,34.05
2023-03-19T20:27:19.096Z,32.53
2023-03-19T20:29:46.941Z,33.28
2023-03-19T20:32:38.456Z,32.35
2023-03-19T20:35:16.721Z,33.05
2023-03-19T20:37:44.190Z,31.60
2023-03-19T20:40:13.236Z,31.83
2023-03-19T20:42:41.511Z,34.75
2023-03-19T20:45:16.153Z,34.60
2023-03-19T20:47:43.502Z,35.42
2023-03-19T20:50:38.256Z,33.80
2023-03-19T20:53:05.857Z,37.33
2023-03-19T20:55:36.285Z,36.35
2023-03-19T20:58:14.421Z,37.05
2023-03-19T21:00:42.244Z,38.80
2023-03-19T21:03:16.907Z,37.60
2023-03-19T21:05:45.252Z,36.80
2023-03-19T21:08:16.422Z,39.47
2023-03-19T21:10:45.085Z,40.08
2023-03-19T21:13:15.661Z,39.38
2023-03-19T21:15:44.959Z,36.17
2023-03-19T21:18:13.157Z,36.72
2023-03-19T21:20:43.001Z,37.47
2023-03-19T21:23:28.374Z,38.30
2023-03-19T21:25:56.209Z,37.67
2023-03-19T21:28:30.635Z,38.63
2023-03-19T21:30:58.437Z,39.63
2023-03-19T21:33:28.893Z,41.55
2023-03-19T21:35:57.549Z,43.05
2023-03-19T21:38:25.470Z,43.05
2023-03-19T21:40:58.074Z,42.00
2023-03-19T21:43:43.846Z,43.38
2023-03-19T21:46:24.036Z,43.15
2023-03-19T21:48:54.503Z,45.13
2023-03-19T21:51:23.667Z,45.50
2023-03-19T21:53:50.995Z,44.42
2023-03-19T21:56:33.581Z,42.63
2023-03-19T21:59:03.705Z,43.33
2023-03-19T22:01:31.381Z,42.97
2023-03-19T22:03:58.733Z,43.03
2023-03-19T22:06:26.269Z,43.28
2023-03-19T22:08:54.278Z,44.97
2023-03-19T22:11:28.701Z,43.97
2023-03-19T22:14:22.757Z,41.92
2023-03-19T22:16:54.088Z,48.00
2023-03-19T22:19:22.026Z,44.10
2023-03-19T22:21:49.721Z,44.60
2023-03-19T22:24:17.022Z,44.92
2023-03-19T22:26:46.829Z,44.90
2023-03-19T22:29:18.398Z,42.55
2023-03-19T22:34:17.306Z,45.00
2023-03-19T22:36:45.092Z,43.95
2023-03-19T22:39:12.814Z,44.15
2023-03-19T22:41:46.203Z,44.05
2023-03-19T22:44:26.674Z,41.40
2023-03-19T22:46:56.292Z,42.72
2023-03-19T22:49:24.872Z,42.63
2023-03-19T22:51:52.586Z,42.13
2023-03-19T22:54:19.856Z,40.95
2023-03-19T22:56:47.406Z,42.47
2023-03-19T22:59:14.663Z,42.72
2023-03-19T23:01:47.424Z,42.17
2023-03-19T23:04:22.484Z,42.75
2023-03-19T23:06:51.872Z,42.90
2023-03-19T23:09:24.850Z,41.40
2023-03-19T23:11:53.769Z,40.65
2023-03-19T23:14:29.657Z,43.42
2023-03-19T23:17:06.693Z,47.67
2023-03-19T23:19:36.708Z,47.60
2023-03-19T23:22:06.742Z,47.33
2023-03-19T23:24:34.377Z,48.38
2023-03-19T23:27:03.130Z,50.70
2023-03-19T23:29:34.466Z,48.72
2023-03-19T23:32:03.447Z,48.40
2023-03-19T23:34:31.530Z,46.25
2023-03-19T23:37:00.943Z,46.90
2023-03-19T23:39:28.927Z,50.72
2023-03-19T23:41:59.145Z,47.42
2023-03-19T23:44:29.210Z,48.05
2023-03-19T23:47:01.519Z,45.50
2023-03-19T23:49:33.341Z,46.30
2023-03-19T23:52:02.393Z,44.90
2023-03-19T23:54:34.429Z,44.88
2023-03-19T23:57:06.718Z,46.58
2023-03-19T23:59:38.145Z,45.55
